createdAt,value
2019-01-24T05:01:44.743Z,34.60
2019-01-24T05:04:19.907Z,33.60
2019-01-24T05:06:55.147Z,35.00
2019-01-24T05:09:30.154Z,35.23
2019-01-24T05:12:05.056Z,33.40
2019-01-24T05:14:40.043Z,35.07
2019-01-24T06:01:42.226Z,34.43
2019-01-24T06:04:17.724Z,35.27
2019-01-24T06:06:52.802Z,37.00
2019-01-24T06:09:27.858Z,33.83
2019-01-24T06:11:51.334Z,35.77
2019-01-24T06:14:13.766Z,36.20
2019-01-24T07:01:02.298Z,33.33
2019-01-24T07:03:37.240Z,34.73
2019-01-24T07:06:12.335Z,33.03
2019-01-24T07:08:47.483Z,33.43
2019-01-24T07:11:22.466Z,32.13
2019-01-24T07:13:57.464Z,33.13
2019-01-24T08:02:22.691Z,34.37
2019-01-24T08:04:57.762Z,33.93
2019-01-24T08:07:32.900Z,32.63
2019-01-24T08:10:08.050Z,33.70
2019-01-24T08:12:43.000Z,32.93
2019-01-24T09:02:51.085Z,33.80
2019-01-24T09:05:26.251Z,32.37
2019-01-24T09:08:01.255Z,33.53
2019-01-24T09:10:36.610Z,33.87
2019-01-24T09:13:11.662Z,32.07
2019-01-24T10:01:15.473Z,34.83
2019-01-24T10:03:50.547Z,35.60
2019-01-24T10:06:25.579Z,34.33
2019-01-24T10:09:00.683Z,33.60
2019-01-24T10:11:35.479Z,35.17
2019-01-24T10:14:10.475Z,33.90
2019-01-24T10:46:07.715Z,33.07
2019-01-24T10:48:30.192Z,31.07
2019-01-24T10:50:52.646Z,30.30
2019-01-24T10:53:15.090Z,31.43
2019-01-24T10:55:37.534Z,31.80
2019-01-24T10:58:01.482Z,30.80
2019-01-24T11:00:31.570Z,31.87
2019-01-24T11:02:54.237Z,31.37
2019-01-24T11:05:16.935Z,30.43
2019-01-24T11:07:40.696Z,29.47
2019-01-24T11:10:04.959Z,29.77
2019-01-24T11:12:28.508Z,32.53
2019-01-24T11:14:50.993Z,32.87
2019-01-24T11:40:16.180Z,32.83
2019-01-24T11:42:39.559Z,30.37
2019-01-24T11:45:01.988Z,31.17
2019-01-24T11:47:24.539Z,30.17
2019-01-24T11:49:47.134Z,31.83
2019-01-24T11:52:09.871Z,28.03
2019-01-24T11:54:32.625Z,30.40
2019-01-24T11:56:55.102Z,30.47
2019-01-24T11:59:17.594Z,30.13
2019-01-24T12:01:40.121Z,29.10
2019-01-24T12:04:02.673Z,28.50
2019-01-24T12:06:25.436Z,29.93
2019-01-24T12:08:48.184Z,29.63
2019-01-24T12:11:10.882Z,31.83
2019-01-24T12:13:33.334Z,31.30
2019-01-24T13:00:40.189Z,32.23
2019-01-24T13:03:03.053Z,29.87
2019-01-24T13:05:25.606Z,31.10
2019-01-24T13:07:48.140Z,30.60
2019-01-24T13:10:13.343Z,28.20
2019-01-24T13:12:36.065Z,26.70
2019-01-24T13:14:58.600Z,29.27
2019-01-24T14:01:11.344Z,25.87
2019-01-24T14:03:43.222Z,25.57
2019-01-24T14:06:05.679Z,25.63
2019-01-24T14:08:28.295Z,24.50
2019-01-24T14:10:50.879Z,25.37
2019-01-24T14:13:13.408Z,26.43
2019-01-24T15:01:57.574Z,27.10
2019-01-24T15:04:20.038Z,27.93
2019-01-24T15:06:43.120Z,29.60
2019-01-24T15:09:07.718Z,28.80
2019-01-24T15:11:31.951Z,28.23
2019-01-24T15:13:54.492Z,30.13
2019-01-24T16:00:42.241Z,31.77
2019-01-24T16:03:05.036Z,32.83
2019-01-24T16:05:27.687Z,31.93
2019-01-24T16:07:50.143Z,31.40
2019-01-24T16:10:13.962Z,33.10
2019-01-24T16:12:36.399Z,33.03
2019-01-24T16:14:58.873Z,32.07
2019-01-24T17:00:16.407Z,34.03
2019-01-24T17:02:39.056Z,35.23
2019-01-24T17:05:01.491Z,34.07
2019-01-24T17:07:24.170Z,32.50
2019-01-24T17:09:46.730Z,35.43
2019-01-24T17:12:09.235Z,34.53
2019-01-24T17:14:31.840Z,34.10
2019-01-24T18:01:04.897Z,35.33
2019-01-24T18:03:28.566Z,37.67
2019-01-24T18:05:51.238Z,39.80
2019-01-24T18:08:13.743Z,37.37
2019-01-24T18:10:36.192Z,37.90
2019-01-24T18:12:58.729Z,39.20
2019-01-24T19:02:16.222Z,39.63
2019-01-24T19:04:38.812Z,39.83
2019-01-24T19:07:01.519Z,40.53
2019-01-24T19:09:24.196Z,39.57
2019-01-24T19:11:46.819Z,38.73
2019-01-24T19:14:09.626Z,39.17
2019-01-24T20:00:27.578Z,41.15
2019-01-24T20:02:50.316Z,38.07
2019-01-24T20:05:14.711Z,38.57
2019-01-24T20:07:37.336Z,40.00
2019-01-24T20:10:01.172Z,39.90
2019-01-24T20:12:25.735Z,39.57
2019-01-24T20:14:48.275Z,39.03
2019-01-24T21:02:12.363Z,41.23
2019-01-24T21:04:34.877Z,40.53
2019-01-24T21:06:57.518Z,39.33
2019-01-24T21:09:20.055Z,40.27
2019-01-24T21:11:42.499Z,41.40
2019-01-24T21:14:05.519Z,41.67
